地図

経路データ

SID SEASON NUMBER BASIN SUBBASIN NAME ISO_TIME NATURE LAT LON WMO_WIND WMO_PRES WMO_AGENCY TRACK_TYPE DIST2LAND LANDFALL IFLAG USA_AGENCY USA_ATCF_ID USA_LAT USA_LON USA_RECORD USA_STATUS USA_WIND USA_PRES USA_SSHS USA_R34_NE USA_R34_SE USA_R34_SW USA_R34_NW USA_R50_NE USA_R50_SE USA_R50_SW USA_R50_NW USA_R64_NE USA_R64_SE USA_R64_SW USA_R64_NW USA_POCI USA_ROCI USA_RMW USA_EYE TOKYO_LAT TOKYO_LON TOKYO_GRADE TOKYO_WIND TOKYO_PRES TOKYO_R50_DIR TOKYO_R50_LONG TOKYO_R50_SHORT TOKYO_R30_DIR TOKYO_R30_LONG TOKYO_R30_SHORT TOKYO_LAND CMA_LAT CMA_LON CMA_CAT CMA_WIND CMA_PRES HKO_LAT HKO_LON HKO_CAT HKO_WIND HKO_PRES NEWDELHI_LAT NEWDELHI_LON NEWDELHI_GRADE NEWDELHI_WIND NEWDELHI_PRES NEWDELHI_CI NEWDELHI_DP NEWDELHI_POCI REUNION_LAT REUNION_LON REUNION_TYPE REUNION_WIND REUNION_PRES REUNION_TNUM REUNION_CI REUNION_RMW REUNION_R34_NE REUNION_R34_SE REUNION_R34_SW REUNION_R34_NW REUNION_R50_NE REUNION_R50_SE REUNION_R50_SW REUNION_R50_NW REUNION_R64_NE REUNION_R64_SE REUNION_R64_SW REUNION_R64_NW BOM_LAT BOM_LON BOM_TYPE BOM_WIND BOM_PRES BOM_TNUM BOM_CI BOM_RMW BOM_R34_NE BOM_R34_SE BOM_R34_SW BOM_R34_NW BOM_R50_NE BOM_R50_SE BOM_R50_SW BOM_R50_NW BOM_R64_NE BOM_R64_SE BOM_R64_SW BOM_R64_NW BOM_ROCI BOM_POCI BOM_EYE BOM_POS_METHOD BOM_PRES_METHOD NADI_LAT NADI_LON NADI_CAT NADI_WIND NADI_PRES WELLINGTON_LAT WELLINGTON_LON WELLINGTON_WIND WELLINGTON_PRES DS824_LAT DS824_LON DS824_STAGE DS824_WIND DS824_PRES TD9636_LAT TD9636_LON TD9636_STAGE TD9636_WIND TD9636_PRES TD9635_LAT TD9635_LON TD9635_WIND TD9635_PRES TD9635_ROCI NEUMANN_LAT NEUMANN_LON NEUMANN_CLASS NEUMANN_WIND NEUMANN_PRES MLC_LAT MLC_LON MLC_CLASS MLC_WIND MLC_PRES USA_GUST BOM_GUST BOM_GUST_PER REUNION_GUST REUNION_GUST_PER USA_SEAHGT USA_SEARAD_NE USA_SEARAD_SE USA_SEARAD_SW USA_SEARAD_NW STORM_SPEED STORM_DIR
1950013S14139 1950 3 SP EA NOT_NAMED 1950-01-12 23:00:00 NR -13.8000 139.100 main 233 233 __________O___ -1 -13.8000 139.100 7 1 0
1950013S14139 1950 3 SP EA NOT_NAMED 1950-01-13 00:00:00 TS -13.8100 139.101 main 233 230 O________OP___ jtwc_sh SH051950 -13.8000 139.100 -1 -13.8000 139.100 TC -13.8200 139.103 7 1 0
1950013S14139 1950 3 SP EA NOT_NAMED 1950-01-13 03:00:00 TS -13.8622 139.103 main 230 230 P________PP___ SH051950 -13.8500 139.098 -1 -13.8500 139.098 TC -13.8785 139.110 7 1 169
1950013S14139 1950 3 SP EA NOT_NAMED 1950-01-13 06:00:00 TS -13.9128 139.105 main 230 229 O________OP___ jtwc_sh SH051950 -13.9000 139.100 -1 -13.9000 139.100 TC -13.9321 139.113 7 1 176
1950013S14139 1950 3 SP EA NOT_NAMED 1950-01-13 09:00:00 TS -13.9589 139.108 main 229 229 P________PP___ SH051950 -13.9500 139.108 -1 -13.9500 139.108 TC -13.9768 139.108 7 1 196
1950013S14139 1950 3 SP EA NOT_NAMED 1950-01-13 11:00:00 TS -13.9889 139.104 main 229 229 P________PO___ SH051950 -13.9833 139.106 -1 -13.9833 139.106 TC -14.0000 139.100 7 1 0
1950013S14139 1950 3 SP EA NOT_NAMED 1950-01-13 12:00:00 TS -14.0031 139.098 main 229 229 O________OP___ jtwc_sh SH051950 -14.0000 139.100 -1 -14.0000 139.100 TC -14.0093 139.094 7 1 215
1950013S14139 1950 3 SP EA NOT_NAMED 1950-01-13 15:00:00 TS -14.0447 139.056 main 229 216 P________PP___ SH051950 -14.0500 139.050 -1 -14.0500 139.050 TC -14.0341 139.069 7 1 223
1950013S14139 1950 3 SP EA NOT_NAMED 1950-01-13 18:00:00 TS -14.0896 139.013 main 216 216 O________OP___ jtwc_sh SH051950 -14.1000 139.000 -1 -14.1000 139.000 TC -14.0689 139.040 7 1 216
1950013S14139 1950 3 SP EA NOT_NAMED 1950-01-13 21:00:00 TS -14.1291 139.000 main 216 215 P________PP___ SH051950 -14.1275 138.992 -1 -14.1275 138.992 TC -14.1324 139.014 7 3 0
1950013S14139 1950 3 SP EA NOT_NAMED 1950-01-13 23:00:00 TS -14.3177 138.998 1001 bom main 215 215 P_____O__PO___ SH051950 -14.1662 138.997 -1 -16.0000 139.000 1001 -14.1662 138.997 TC -14.2000 139.000 7 9 182
1950013S14139 1950 3 SP EA NOT_NAMED 1950-01-14 00:00:00 TS -14.5712 138.999 main 218 209 O_____P__OP___ jtwc_sh SH051950 -14.2000 139.000 -1 -15.9930 139.001 -14.2000 139.000 TC -14.2453 138.997 7 8 0
1950013S14139 1950 3 SP EA NOT_NAMED 1950-01-14 03:00:00 TS -14.8548 138.998 main 201 185 P_____P__PP___ SH051950 -14.3700 139.000 -1 -15.9741 139.005 -14.3700 139.000 TC -14.4138 138.992 7 5 183
1950013S14139 1950 3 SP EA NOT_NAMED 1950-01-14 06:00:00 TS -15.1116 138.998 main 185 171 O_____P__OP___ jtwc_sh SH051950 -14.6000 139.000 -1 -15.9625 139.008 -14.6000 139.000 TC -14.6190 138.993 7 5 182
1950013S14139 1950 3 SP EA NOT_NAMED 1950-01-14 09:00:00 TS -15.3039 138.998 main 171 162 P_____P__PP___ SH051950 -14.8500 139.000 -1 -15.9637 139.011 -14.8500 139.000 TC -14.8452 138.997 7 4 0
1950013S14139 1950 3 SP EA NOT_NAMED 1950-01-14 11:00:00 TS -15.4081 138.998 main 162 151 P_____P__PO___ SH051950 -15.0198 139.000 -1 -15.9744 139.012 -15.0198 139.000 TC -15.0000 139.000 7 3 171
1950013S14139 1950 3 SP EA NOT_NAMED 1950-01-14 12:00:00 TS -15.4599 138.998 main 151 140 O_____P__OP___ jtwc_sh SH051950 -15.1000 139.000 -1 -15.9833 139.012 -15.1000 139.000 TC -15.0790 139.000 7 3 0
1950013S14139 1950 3 SP EA NOT_NAMED 1950-01-14 15:00:00 TS -15.6072 138.998 main 140 119 P_____P__PP___ SH051950 -15.3000 139.000 -1 -16.0265 139.012 -15.3000 139.000 TC -15.3247 139.000 7 3 0
1950013S14139 1950 3 SP EA NOT_NAMED 1950-01-14 18:00:00 TS -15.7646 138.998 main 119 109 O_____P__OP___ jtwc_sh SH051950 -15.5000 139.000 -1 -16.0991 139.009 -15.5000 139.000 TC -15.5662 139.000 7 4 179
1950013S14139 1950 3 SP EA NOT_NAMED 1950-01-14 21:00:00 TS -15.9588 138.999 main 99 89 P_____P__PP___ SH051950 -15.7725 139.000 -1 -16.2064 139.005 -15.7725 139.000 TC -15.7816 139.000 7 4 0
1950013S14139 1950 3 SP EA NOT_NAMED 1950-01-14 23:00:00 TS -16.0846 138.999 999 bom main 89 89 P_____O__PO___ SH051950 -15.9369 139.000 -1 -16.3000 139.000 999 -15.9369 139.000 TC -15.9000 139.000 7 4 0
1950013S14139 1950 3 SP EA NOT_NAMED 1950-01-15 00:00:00 TS -16.1403 139.000 main 89 67 O_____P__OP___ jtwc_sh SH051950 -16.0000 139.000 -1 -16.3540 138.997 -16.0000 139.000 TC -15.9476 139.001 7 3 173
1950013S14139 1950 3 SP EA NOT_NAMED 1950-01-15 03:00:00 TS -16.2688 139.005 main 67 55 P_____P__PP___ SH051950 -16.0800 139.000 -1 -16.5462 139.000 -16.0800 139.000 TC -16.0583 139.005 7 2 178
1950013S14139 1950 3 SP EA NOT_NAMED 1950-01-15 06:00:00 TS -16.3840 139.026 main 55 44 O_____P__OP___ jtwc_sh SH051950 -16.1000 139.000 -1 -16.7862 139.044 -16.1000 139.000 TC -16.1306 139.008 7 3 166
1950013S14139 1950 3 SP EA NOT_NAMED 1950-01-15 09:00:00 TS -16.5289 139.075 main 46 35 P_____P__PP___ SH051950 -16.1575 139.008 -1 -17.0768 139.163 -16.1575 139.008 TC -16.1772 139.006 7 3 158
1950013S14139 1950 3 SP EA NOT_NAMED 1950-01-15 11:00:00 TS -16.6328 139.126 bom main 35 24 P_____O__PO___ SH051950 -16.1890 139.006 -1 -17.3000 139.300 -16.1890 139.006 TC -16.2000 139.000 7 3 153
1950013S14139 1950 3 SP EA NOT_NAMED 1950-01-15 12:00:00 TS -16.6830 139.156 main 30 22 O_____P__OP___ jtwc_sh SH051950 -16.2000 139.000 -1 -17.4180 139.393 -16.2000 139.000 TC -16.1953 138.985 7 4 146
1950013S14139 1950 3 SP EA NOT_NAMED 1950-01-15 15:00:00 TS -16.8288 139.262 main 24 15 P_____P__PP___ SH051950 -16.1925 138.950 -1 -17.8105 139.748 -16.1925 138.950 TC -16.1622 138.931 7 4 143
1950013S14139 1950 3 SP EA NOT_NAMED 1950-01-15 18:00:00 TS -17.0008 139.404 main 21 21 O_____P__OP___ jtwc_sh SH051950 -16.2000 138.900 -1 -18.2439 140.187 -16.2000 138.900 TC -16.1440 138.885 7 5 141
1950013S14139 1950 3 SP EA NOT_NAMED 1950-01-15 21:00:00 TS -17.2072 139.581 main 24 15 P_____P__PP___ SH051950 -16.2400 138.870 -1 -18.6971 140.672 -16.2400 138.870 TC -16.1972 138.874 7 6 142
1950013S14139 1950 3 SP EA NOT_NAMED 1950-01-15 23:00:00 TS -17.3815 139.720 990 bom main 15 11 P_____O__PO___ SH051950 -16.3271 138.880 -1 -19.0000 141.000 990 -16.3271 138.880 TC -16.3000 138.900 7 7 144
1950013S14139 1950 3 SP EA NOT_NAMED 1950-01-16 00:00:00 TS -17.4855 139.793 main 11 0 O_____P__OP___ jtwc_sh SH051950 -16.4000 138.900 -1 -19.1232 141.126 -16.4000 138.900 TC -16.3954 138.924 7 5 154
1950013S14139 1950 3 SP EA NOT_NAMED 1950-01-16 03:00:00 TS -17.6715 139.864 main 0 0 P_____P__PP___ SH051950 -16.7475 139.013 -1 -19.4709 141.485 -16.7475 139.013 TC -16.7727 139.037 7 4 166
1950013S14139 1950 3 SP EA NOT_NAMED 1950-01-16 06:00:00 TS -17.8770 139.896 main 0 0 O_____P__OP___ jtwc_sh SH051950 -17.2000 139.200 -1 -19.7913 141.819 -17.2000 139.200 TC -17.2334 139.207 7 4 0
1950013S14139 1950 3 SP EA NOT_NAMED 1950-01-16 09:00:00 TS -18.0490 139.856 main 0 0 P_____P__PP___ SH051950 -17.6725 139.435 -1 -20.0912 142.133 -17.6725 139.435 TC -17.7088 139.428 7 4 249
1950013S14139 1950 3 SP EA NOT_NAMED 1950-01-16 11:00:00 TS -17.9801 139.608 main 0 0 P_____P__PO___ SH051950 -17.9702 139.611 -1 -20.2831 142.335 -17.9702 139.611 TC -18.0000 139.600 7 3 253
1950013S14139 1950 3 SP EA NOT_NAMED 1950-01-16 12:00:00 TS -18.0984 139.687 main 0 0 O_____P__OP___ jtwc_sh SH051950 -18.1000 139.700 -1 -20.3775 142.434 -18.1000 139.700 TC -18.0953 139.662 7 7 144
1950013S14139 1950 3 SP EA NOT_NAMED 1950-01-16 15:00:00 TS -18.3621 139.904 main 0 0 P_____P__PP___ SH051950 -18.3723 139.920 -1 -20.6572 142.726 -18.3723 139.920 TC -18.3416 139.870 7 7 136
1950013S14139 1950 3 SP EA NOT_NAMED 1950-01-16 18:00:00 TS -18.5917 140.183 main 0 0 O_____P__OP___ jtwc_sh SH051950 -18.6000 140.200 -1 -20.9370 143.017 -18.6000 140.200 TC -18.5752 140.148 7 8 129
1950013S14139 1950 3 SP EA NOT_NAMED 1950-01-16 21:00:00 TS -18.8551 140.551 main 0 0 P_____P__PP___ SH051950 -18.8544 140.553 -1 -21.2237 143.311 -18.8544 140.553 TC -18.8565 140.545 7 10 126
1950013S14139 1950 3 SP EA NOT_NAMED 1950-01-16 23:00:00 TS -19.0790 140.892 988 bom main 0 0 P_____P__PO___ SH051950 -19.0684 140.889 -1 -21.4221 143.513 -19.0684 140.889 TC -19.1000 140.900 7 13 124
1950013S14139 1950 3 SP EA NOT_NAMED 1950-01-17 00:00:00 TS -19.2146 141.109 main 0 0 O_____P__OP___ jtwc_sh SH051950 -19.2000 141.100 -1 -21.5242 143.616 -19.2000 141.100 TC -19.2439 141.127 7 18 122
1950013S14139 1950 3 SP EA NOT_NAMED 1950-01-17 03:00:00 TS -19.7024 141.938 main 0 0 P_____P__PP___ SH051950 -19.6830 141.940 -1 -21.8452 143.937 -19.6830 141.940 TC -19.7411 141.935 7 20 123
1950013S14139 1950 3 SP EA NOT_NAMED 1950-01-17 06:00:00 TS -20.3101 142.886 main 0 0 O_____P__OP___ jtwc_sh SH051950 -20.3000 142.900 -1 -22.1934 144.281 -20.3000 142.900 TC -20.3304 142.859 7 25 129
1950013S14139 1950 3 SP EA NOT_NAMED 1950-01-17 09:00:00 TS -21.2961 144.012 main 0 0 P_____P__PP___ SH051950 -21.0048 143.780 -1 -22.5755 144.654 -21.0048 143.780 TC -21.0051 143.805 7 28 135
1950013S14139 1950 3 SP EA NOT_NAMED 1950-01-17 11:00:00 TS -21.9623 144.660 main 0 0 P_____P__PO___ SH051950 -21.5280 144.337 -1 -22.8523 144.923 -21.5280 144.337 TC -21.5000 144.400 7 27 139
1950013S14139 1950 3 SP EA NOT_NAMED 1950-01-17 12:00:00 TS -22.3293 144.972 main 0 0 O_____P__OP___ jtwc_sh SH051950 -21.8000 144.600 -1 -22.9981 145.065 -21.8000 144.600 TC -21.7492 144.659 7 22 142
1950013S14139 1950 3 SP EA NOT_NAMED 1950-01-17 15:00:00 TS -23.0924 145.617 main 0 0 P_____P__PP___ SH051950 -22.6270 145.331 -1 -23.4679 145.518 -22.6270 145.331 TC -22.5564 145.392 7 18 143
1950013S14139 1950 3 SP EA NOT_NAMED 1950-01-17 18:00:00 TS -23.7920 146.167 main 0 0 O_____P__OP___ jtwc_sh SH051950 -23.5000 146.000 -1 -23.9914 146.023 -23.5000 146.000 TC -23.4356 146.070 7 17 145
1950013S14139 1950 3 SP EA NOT_NAMED 1950-01-17 21:00:00 TS -24.5034 146.714 main 0 0 P_____P__PP___ SH051950 -24.3848 146.673 -1 -24.5748 146.587 -24.3848 146.673 TC -24.3643 146.701 7 18 146
1950013S14139 1950 3 SP EA NOT_NAMED 1950-01-17 23:00:00 TS -25.0137 147.086 989 bom main 0 0 P_____O__PO___ SH051950 -24.9916 147.098 -1 -25.0000 147.000 989 -24.9916 147.098 TC -25.0000 147.100 7 19 147
1950013S14139 1950 3 SP EA NOT_NAMED 1950-01-18 00:00:00 TS -25.2791 147.278 main 0 0 O_____P__OP___ jtwc_sh SH051950 -25.3000 147.300 -1 -25.2240 147.218 989 -25.3000 147.300 TC -25.2977 147.304 7 20 148
1950013S14139 1950 3 SP EA NOT_NAMED 1950-01-18 03:00:00 TS -26.1428 147.873 main 0 0 P_____P__PP___ SH051950 -26.2271 147.866 -1 -25.9357 147.917 989 -26.2271 147.866 TC -26.2078 147.889 7 21 150
1950013S14139 1950 3 SP EA NOT_NAMED 1950-01-18 06:00:00 TS -27.0829 148.456 main 0 0 O_____P__OP___ jtwc_sh SH051950 -27.2000 148.400 -1 -26.6920 148.669 989 -27.2000 148.400 TC -27.1601 148.439 7 22 152
1950013S14139 1950 3 SP EA NOT_NAMED 1950-01-18 09:00:00 TS -28.0950 149.028 main 0 0 P_____P__PP___ SH051950 -28.2124 148.958 -1 -27.4739 149.459 989 -28.2124 148.958 TC -28.1764 148.962 7 23 155
1950013S14139 1950 3 SP EA NOT_NAMED 1950-01-18 11:00:00 TS -28.8477 149.368 990 bom main 0 0 P_____O__PO___ SH051950 -28.9276 149.323 -1 -28.0000 150.000 990 -28.9276 149.323 TC -28.9000 149.300 7 25 161
1950013S14139 1950 3 SP EA NOT_NAMED 1950-01-18 12:00:00 TS -29.2911 149.487 main 0 0 O________OP___ jtwc_sh SH051950 -29.3000 149.500 -1 -29.3000 149.500 TC -29.2778 149.467 7 26 162
1950013S14139 1950 3 SP EA NOT_NAMED 1950-01-18 15:00:00 TS -30.4720 149.986 main 0 0 P________PP___ SH051950 -30.4753 150.008 -1 -30.4753 150.008 TC -30.4687 149.964 7 26 161
1950013S14139 1950 3 SP EA NOT_NAMED 1950-01-18 18:00:00 TS -31.7159 150.476 main 0 0 O________OP___ jtwc_sh SH051950 -31.7000 150.500 -1 -31.7000 150.500 TC -31.7264 150.460 7 27 162
1950013S14139 1950 3 SP EA NOT_NAMED 1950-01-18 21:00:00 NR -33.0249 150.960 main 0 0 __________P___ SH051950 -1 TC -33.0249 150.960 7 28 162
1950013S14139 1950 3 SP EA NOT_NAMED 1950-01-18 23:00:00 NR -33.9000 151.300 main 0 __________O___ SH051950 -1 TC -33.9000 151.300 7 28 162

デジタル台風データ・検索

IBTrACS Databaseについて

本データベースは、米国NOAAが公開する1842年以降の世界の熱帯低気圧のベストトラックデータアーカイブInternational Best Track Archive for Climate Stewardship (IBTrACS)を、ウェブで閲覧しやすい形式に変換したものです。

最終更新日:2021-12-03